createdAt,value
2022-10-17T18:23:36.647Z,100410.01
2022-10-17T18:24:40.750Z,100409.84
2022-10-17T18:25:44.872Z,100408.08
2022-10-17T18:26:48.988Z,100404.81
2022-10-17T18:27:53.086Z,100411.28
2022-10-17T18:28:57.183Z,100408.49
2022-10-17T18:30:01.299Z,100411.17
2022-10-17T18:31:05.404Z,100408.66
2022-10-17T18:32:09.562Z,100398.74
2022-10-17T18:33:13.655Z,100406.5
2022-10-17T18:34:17.790Z,100407.39
2022-10-17T18:35:21.948Z,100398.78
2022-10-17T18:36:26.064Z,100402.06
2022-10-17T18:37:30.506Z,100396.77
2022-10-17T18:38:34.862Z,100400.99
2022-10-17T18:39:38.954Z,100398.09
2022-10-17T18:40:46.103Z,100405.88
2022-10-17T18:41:54.067Z,100401.68
2022-10-17T18:42:58.184Z,100403.7
2022-10-17T18:44:02.855Z,100408.94
2022-10-17T18:45:07.626Z,100410.87
2022-10-17T18:46:15.809Z,100407.64
2022-10-17T18:47:19.975Z,100404.16
2022-10-17T18:48:24.289Z,100410.91
2022-10-17T18:49:28.404Z,100410.73
2022-10-17T18:50:32.556Z,100402.54
2022-10-17T18:51:36.660Z,100410.73
2022-10-17T18:52:40.806Z,100413.66
2022-10-17T18:53:44.975Z,100400.92
2022-10-17T18:54:49.090Z,100412.66
2022-10-17T18:55:53.188Z,100418.2
2022-10-17T18:56:57.405Z,100404.05
2022-10-17T18:58:01.530Z,100412.32
2022-10-17T18:59:05.647Z,100409.73
2022-10-17T19:00:09.736Z,100406.95
2022-10-17T19:01:13.972Z,100409.87
2022-10-17T19:02:18.279Z,100408.56
2022-10-17T19:03:22.389Z,100413.52
2022-10-17T19:04:26.573Z,100412.87
2022-10-17T19:05:31.083Z,100413.42
2022-10-17T19:06:35.209Z,100407.8
2022-10-17T19:07:39.362Z,100410.56
2022-10-17T19:08:43.455Z,100403.09
2022-10-17T19:09:47.637Z,100408.47
2022-10-17T19:10:51.748Z,100409.32
2022-10-17T19:11:55.946Z,100402.23
2022-10-17T19:13:00.141Z,100405.44
2022-10-17T19:14:04.276Z,100404.78
2022-10-17T19:15:08.449Z,100410.63
2022-10-17T19:16:12.562Z,100403.41
2022-10-17T19:17:16.667Z,100412.05
2022-10-17T19:18:20.770Z,100402.82
2022-10-17T19:19:24.881Z,100401.48
2022-10-17T19:20:29.049Z,100386.36
2022-10-17T19:21:33.643Z,100399.48
2022-10-17T19:22:37.811Z,100409.36
2022-10-17T19:23:41.913Z,100410.13
2022-10-17T19:24:46.008Z,100409.77
2022-10-17T19:25:50.141Z,100398.03
2022-10-17T19:26:54.237Z,100405.38
2022-10-17T19:27:58.332Z,100405.12
2022-10-17T19:29:02.573Z,100402
2022-10-17T19:30:06.943Z,100406.78
2022-10-17T19:31:17.629Z,100409.88
2022-10-17T19:32:29.201Z,100404.78
2022-10-17T19:33:34.208Z,100406.78
2022-10-17T19:34:41.168Z,100404.03
2022-10-17T19:35:45.790Z,100410.64
2022-10-17T19:36:49.986Z,100407.44
2022-10-17T19:37:54.071Z,100413.16
2022-10-17T19:38:58.227Z,100411.3
2022-10-17T19:40:05.051Z,100411.81
2022-10-17T19:41:09.332Z,100405.92
2022-10-17T19:42:13.473Z,100404.23
2022-10-17T19:43:17.552Z,100405.68
2022-10-17T19:44:21.661Z,100414.16
2022-10-17T19:45:25.810Z,100415.7
2022-10-17T19:46:29.942Z,100417.11
2022-10-17T19:47:34.036Z,100407.06
2022-10-17T19:48:38.146Z,100417.02
2022-10-17T19:49:44.424Z,100411.09
2022-10-17T19:50:53.404Z,100415.19
2022-10-17T19:51:57.508Z,100420.55
2022-10-17T19:53:01.858Z,100419.31
2022-10-17T19:54:05.965Z,100423.34
2022-10-17T19:55:10.092Z,100415.7
2022-10-17T19:56:14.189Z,100419.21
2022-10-17T19:57:18.374Z,100419.38
2022-10-17T19:58:22.545Z,100409.47
2022-10-17T19:59:26.758Z,100412.02
2022-10-17T20:00:30.898Z,100409.33
2022-10-17T20:01:35.410Z,100417.31
2022-10-17T20:02:39.844Z,100413.39
2022-10-17T20:03:43.939Z,100416.25
2022-10-17T20:05:17.900Z,100420.45
2022-10-17T20:06:24.895Z,100414.01
2022-10-17T20:07:29.023Z,100412.25
2022-10-17T20:08:33.252Z,100411.01
2022-10-17T20:09:37.410Z,100419.62
2022-10-17T20:10:41.499Z,100417.14
2022-10-17T20:11:45.606Z,100414.62
2022-10-17T20:12:49.999Z,100420.16
2022-10-17T20:13:54.249Z,100416.13
2022-10-17T20:14:58.349Z,100404.08
2022-10-17T20:16:02.483Z,100421.61
2022-10-17T20:17:06.593Z,100415.48
2022-10-17T20:18:10.694Z,100416.47
2022-10-17T20:19:14.833Z,100418.58
2022-10-17T20:21:20.280Z,100419.65
2022-10-17T20:22:24.387Z,100421.09
2022-10-17T20:23:28.549Z,100421.13
2022-10-17T20:24:33.968Z,100423.55
2022-10-17T20:25:38.082Z,100416.91
2022-10-17T20:26:42.202Z,100415.31
2022-10-17T20:27:46.599Z,100417.59
2022-10-17T20:28:50.883Z,100414.49
2022-10-17T20:29:55.141Z,100415.86
2022-10-17T20:30:59.277Z,100419.96
2022-10-17T20:32:03.414Z,100413.55
2022-10-17T20:33:07.575Z,100417
2022-10-17T20:34:11.679Z,100418.62
2022-10-17T20:35:15.820Z,100414.42
2022-10-17T20:36:19.926Z,100417
2022-10-17T20:37:24.043Z,100414
2022-10-17T20:38:28.145Z,100418.55
2022-10-17T20:39:32.264Z,100420.41
2022-10-17T20:40:36.927Z,100421.09
2022-10-17T20:41:41.227Z,100418.48
2022-10-17T20:42:45.345Z,100415.14
2022-10-17T20:43:49.494Z,100418.42
2022-10-17T20:44:53.649Z,100413.83
2022-10-17T20:46:23.171Z,100417.98
2022-10-17T20:47:51.645Z,100416.58
2022-10-17T20:48:56.986Z,100417.27
2022-10-17T20:50:01.105Z,100410.82
2022-10-17T20:51:05.228Z,100418.44
2022-10-17T20:52:09.362Z,100417.27
2022-10-17T20:53:43.553Z,100418.36
2022-10-17T20:54:47.914Z,100415.77
2022-10-17T20:55:52.032Z,100414.89
2022-10-17T20:56:57.734Z,100417.53
2022-10-17T20:58:08.029Z,100417.53
2022-10-17T20:59:12.142Z,100419.05
2022-10-17T21:00:16.267Z,100410.58
2022-10-17T21:01:20.533Z,100404.52
2022-10-17T21:02:24.704Z,100413.26
2022-10-17T21:03:28.805Z,100413.36
2022-10-17T21:04:48.453Z,100410.67
2022-10-17T21:05:52.570Z,100403.63
2022-10-17T21:06:56.681Z,100412.84
2022-10-17T21:08:00.793Z,100409.23
2022-10-17T21:09:04.876Z,100407.5
2022-10-17T21:10:35.759Z,100405.75
2022-10-17T21:11:39.978Z,100406.65
2022-10-17T21:12:55.477Z,100410.09
2022-10-17T21:14:00.300Z,100404.96
2022-10-17T21:15:04.402Z,100407.58
2022-10-17T21:16:08.537Z,100407.89
2022-10-17T21:17:12.665Z,100404.06
2022-10-17T21:18:16.790Z,100405.72
2022-10-17T21:19:20.888Z,100405.82
2022-10-17T21:20:25.094Z,100400.69
2022-10-17T21:21:29.198Z,100403.2
2022-10-17T21:22:33.678Z,100399.7
2022-10-17T21:23:37.860Z,100399.42
2022-10-17T21:24:41.958Z,100393.5
2022-10-17T21:25:46.102Z,100395.56
2022-10-17T21:26:50.243Z,100398.01
2022-10-17T21:27:54.380Z,100383.93
2022-10-17T21:28:58.682Z,100384.77
2022-10-17T21:30:03.046Z,100394.23
2022-10-17T21:31:07.294Z,100385.86
2022-10-17T21:32:32.160Z,100391.06
2022-10-17T21:33:55.000Z,100391.64
2022-10-17T21:34:59.126Z,100389.89
2022-10-17T21:36:03.231Z,100390.3
2022-10-17T21:37:07.405Z,100362.74
2022-10-17T21:38:11.563Z,100381.86
2022-10-17T21:39:15.691Z,100386.03
2022-10-17T21:40:19.810Z,100395.11
2022-10-17T21:41:23.911Z,100392.84
2022-10-17T21:42:28.232Z,100385.72
2022-10-17T21:43:32.997Z,100381.42
2022-10-17T21:44:37.114Z,100381.49
2022-10-17T21:45:41.231Z,100387.69
2022-10-17T21:46:45.325Z,100373.85
2022-10-17T21:48:13.560Z,100381.84
2022-10-17T21:49:17.743Z,100382.42
2022-10-17T21:50:21.853Z,100385.72
2022-10-17T21:51:25.984Z,100382.55
2022-10-17T21:52:30.749Z,100387.48
2022-10-17T21:53:35.667Z,100388.89
2022-10-17T21:54:39.795Z,100382.34
2022-10-17T21:55:43.922Z,100378.32
2022-10-17T21:56:48.058Z,100372.81
2022-10-17T21:57:52.181Z,100380.28
2022-10-17T21:58:56.294Z,100377.77
2022-10-17T22:00:00.436Z,100374.73
2022-10-17T22:01:04.541Z,100383.89
2022-10-17T22:02:08.649Z,100373.05
2022-10-17T22:03:12.745Z,100380.28
2022-10-17T22:04:16.858Z,100369.57
2022-10-17T22:05:21.073Z,100376.49
2022-10-17T22:06:41.926Z,100380.1
2022-10-17T22:07:46.103Z,100377.38
2022-10-17T22:08:50.243Z,100379.69
2022-10-17T22:09:54.346Z,100372.91
2022-10-17T22:10:58.479Z,100370.22
2022-10-17T22:12:02.629Z,100375.77
2022-10-17T22:13:06.736Z,100368.22
2022-10-17T22:14:10.862Z,100380.72
2022-10-17T22:16:19.084Z,100364.3
2022-10-17T22:17:23.203Z,100375.77
2022-10-17T22:18:27.335Z,100365.3
2022-10-17T22:19:31.464Z,100377.35
2022-10-17T22:20:35.602Z,100363.52
2022-10-17T22:21:39.729Z,100367.05
2022-10-17T22:22:43.874Z,100364.78
2022-10-17T22:23:47.997Z,100364.86
2022-10-17T22:24:52.107Z,100355.01
2022-10-17T22:25:56.212Z,100361.17
2022-10-17T22:27:00.322Z,100356.25
2022-10-17T22:28:04.427Z,100361.86
2022-10-17T22:29:08.573Z,100355.42
2022-10-17T22:30:12.696Z,100358.17
2022-10-17T22:31:16.830Z,100354.25
2022-10-17T22:32:23.585Z,100357.34
2022-10-17T22:33:27.716Z,100359.77
2022-10-17T22:34:31.858Z,100361.62
2022-10-17T22:35:35.970Z,100357.77
2022-10-17T22:36:40.112Z,100354.59
2022-10-17T22:37:44.245Z,100356.49
2022-10-17T22:38:48.389Z,100358.83
2022-10-17T22:39:52.494Z,100356.66
2022-10-17T22:40:56.620Z,100352.98
2022-10-17T22:42:00.714Z,100355.22
2022-10-17T22:43:04.828Z,100352.22
2022-10-17T22:44:08.960Z,100347.71
2022-10-17T22:45:13.090Z,100354.49
2022-10-17T22:46:17.198Z,100354.56
2022-10-17T22:47:21.311Z,100355.42
2022-10-17T22:48:25.422Z,100359.45
2022-10-17T22:49:29.552Z,100352.91
2022-10-17T22:50:33.666Z,100346.64
2022-10-17T22:51:37.787Z,100352.91
2022-10-17T22:52:41.912Z,100343.86
2022-10-17T22:53:46.052Z,100351.56
2022-10-17T22:54:50.160Z,100351.22
2022-10-17T22:55:54.264Z,100345.3
2022-10-17T22:56:58.352Z,100349.4
2022-10-17T22:58:02.442Z,100343.69
2022-10-17T22:59:06.554Z,100352.56
2022-10-17T23:00:10.648Z,100361.03
2022-10-17T23:01:14.965Z,100350.73
2022-10-17T23:02:19.194Z,100358.55
2022-10-17T23:03:23.299Z,100348.13
2022-10-17T23:04:27.406Z,100352.08
2022-10-17T23:05:31.491Z,100352.73
2022-10-17T23:06:35.598Z,100348.95
2022-10-17T23:07:39.713Z,100349.64
2022-10-17T23:08:43.836Z,100352.73
2022-10-17T23:09:47.954Z,100345.09
2022-10-17T23:10:52.084Z,100342.61
2022-10-17T23:11:56.196Z,100353.66
2022-10-17T23:13:00.401Z,100343.34
2022-10-17T23:14:04.494Z,100348.95
2022-10-17T23:15:08.620Z,100351.22
2022-10-17T23:16:12.730Z,100337.66
2022-10-17T23:17:16.846Z,100340.24
2022-10-17T23:18:21.083Z,100345.7
2022-10-17T23:19:25.343Z,100337.31
2022-10-17T23:20:29.465Z,100337.83
2022-10-17T23:21:33.584Z,100340.24
2022-10-17T23:22:37.691Z,100349.39
2022-10-17T23:23:41.810Z,100350.8
2022-10-17T23:24:45.919Z,100342.17
2022-10-17T23:25:50.054Z,100344.03
2022-10-17T23:26:54.173Z,100339.08
2022-10-17T23:27:58.277Z,100336.14
2022-10-17T23:29:02.517Z,100336.91
2022-10-17T23:30:06.709Z,100343.69
2022-10-17T23:31:10.836Z,100337.83
2022-10-17T23:32:14.978Z,100338.59
2022-10-17T23:33:19.066Z,100337.56
2022-10-17T23:34:23.163Z,100334.36
2022-10-17T23:35:27.284Z,100336.63
2022-10-17T23:37:36.544Z,100332.61
2022-10-17T23:38:40.667Z,100329.61
2022-10-17T23:39:44.814Z,100333.22
2022-10-17T23:40:48.958Z,100327.52
2022-10-17T23:41:53.055Z,100333.7
2022-10-17T23:42:57.146Z,100329.27
2022-10-17T23:44:01.240Z,100322
2022-10-17T23:45:05.340Z,100323.41
2022-10-17T23:46:09.447Z,100322.59
2022-10-17T23:47:13.571Z,100316.05
2022-10-17T23:48:17.673Z,100325.27
2022-10-17T23:49:21.761Z,100330.36
2022-10-17T23:50:25.847Z,100325.52
2022-10-17T23:51:29.943Z,100320.08
2022-10-17T23:52:34.047Z,100326.86
2022-10-17T23:53:38.168Z,100324.17
2022-10-17T23:55:46.435Z,100322.86
2022-10-17T23:56:50.586Z,100334.14
2022-10-17T23:57:54.692Z,100324.38
2022-10-17T23:58:58.792Z,100322.59
